sensor_id;sensor_type;location;lat;lon;timestamp;P1;durP1;ratioP1;P2;durP2;ratioP2
1779;SDS011;10019;46.670;14.260;2022-09-01T00:00:31;8.90;;;6.60;;
1779;SDS011;10019;46.670;14.260;2022-09-01T00:03:03;7.23;;;6.53;;
1779;SDS011;10019;46.670;14.260;2022-09-01T00:05:35;7.90;;;6.13;;
1779;SDS011;10019;46.670;14.260;2022-09-01T00:08:07;7.47;;;6.80;;
1779;SDS011;10019;46.670;14.260;2022-09-01T00:10:40;7.43;;;6.77;;
1779;SDS011;10019;46.670;14.260;2022-09-01T00:13:12;8.80;;;8.00;;
1779;SDS011;10019;46.670;14.260;2022-09-01T00:15:43;8.43;;;7.63;;
1779;SDS011;10019;46.670;14.260;2022-09-01T00:18:15;8.13;;;6.80;;
1779;SDS011;10019;46.670;14.260;2022-09-01T00:20:47;7.33;;;6.63;;
1779;SDS011;10019;46.670;14.260;2022-09-01T00:23:18;8.27;;;7.50;;
1779;SDS011;10019;46.670;14.260;2022-09-01T00:25:52;7.03;;;6.43;;
1779;SDS011;10019;46.670;14.260;2022-09-01T00:28:24;6.70;;;6.10;;
1779;SDS011;10019;46.670;14.260;2022-09-01T00:30:55;7.77;;;6.77;;
1779;SDS011;10019;46.670;14.260;2022-09-01T00:33:27;7.67;;;6.90;;
1779;SDS011;10019;46.670;14.260;2022-09-01T00:35:59;7.47;;;6.73;;
1779;SDS011;10019;46.670;14.260;2022-09-01T00:38:31;7.90;;;6.23;;
1779;SDS011;10019;46.670;14.260;2022-09-01T00:41:05;7.13;;;6.43;;
1779;SDS011;10019;46.670;14.260;2022-09-01T00:43:38;7.63;;;6.90;;
1779;SDS011;10019;46.670;14.260;2022-09-01T00:46:14;7.83;;;6.30;;
1779;SDS011;10019;46.670;14.260;2022-09-01T00:48:50;6.77;;;6.17;;
1779;SDS011;10019;46.670;14.260;2022-09-01T00:51:25;6.30;;;5.67;;
1779;SDS011;10019;46.670;14.260;2022-09-01T00:53:57;6.77;;;6.17;;
1779;SDS011;10019;46.670;14.260;2022-09-01T00:56:31;6.67;;;6.00;;
1779;SDS011;10019;46.670;14.260;2022-09-01T00:59:04;9.57;;;6.40;;
1779;SDS011;10019;46.670;14.260;2022-09-01T01:01:37;6.50;;;5.90;;
1779;SDS011;10019;46.670;14.260;2022-09-01T01:04:09;12.70;;;6.33;;
1779;SDS011;10019;46.670;14.260;2022-09-01T01:06:44;7.30;;;6.43;;
1779;SDS011;10019;46.670;14.260;2022-09-01T01:09:19;7.43;;;6.73;;
1779;SDS011;10019;46.670;14.260;2022-09-01T01:11:53;8.70;;;7.03;;
1779;SDS011;10019;46.670;14.260;2022-09-01T01:14:28;7.43;;;6.70;;
1779;SDS011;10019;46.670;14.260;2022-09-01T01:17:01;7.10;;;5.67;;
1779;SDS011;10019;46.670;14.260;2022-09-01T01:19:36;7.57;;;6.87;;
1779;SDS011;10019;46.670;14.260;2022-09-01T01:22:31;7.80;;;6.43;;
1779;SDS011;10019;46.670;14.260;2022-09-01T01:25:25;5.23;;;4.73;;
1779;SDS011;10019;46.670;14.260;2022-09-01T01:28:08;5.20;;;4.77;;
1779;SDS011;10019;46.670;14.260;2022-09-01T01:30:42;4.80;;;4.40;;
1779;SDS011;10019;46.670;14.260;2022-09-01T01:33:20;5.27;;;4.53;;
1779;SDS011;10019;46.670;14.260;2022-09-01T01:35:55;6.73;;;4.57;;
1779;SDS011;10019;46.670;14.260;2022-09-01T01:38:27;5.17;;;4.50;;
1779;SDS011;10019;46.670;14.260;2022-09-01T01:41:01;6.47;;;4.90;;
1779;SDS011;10019;46.670;14.260;2022-09-01T01:43:33;5.13;;;4.70;;
1779;SDS011;10019;46.670;14.260;2022-09-01T01:46:07;4.77;;;4.30;;
1779;SDS011;10019;46.670;14.260;2022-09-01T01:48:41;5.10;;;4.60;;
1779;SDS011;10019;46.670;14.260;2022-09-01T01:51:13;5.13;;;4.63;;
1779;SDS011;10019;46.670;14.260;2022-09-01T01:53:49;5.40;;;4.90;;
1779;SDS011;10019;46.670;14.260;2022-09-01T01:56:23;5.50;;;4.80;;
1779;SDS011;10019;46.670;14.260;2022-09-01T01:58:55;4.90;;;4.37;;
1779;SDS011;10019;46.670;14.260;2022-09-01T02:01:28;6.30;;;4.57;;
1779;SDS011;10019;46.670;14.260;2022-09-01T02:04:01;4.83;;;4.40;;
1779;SDS011;10019;46.670;14.260;2022-09-01T02:06:34;5.20;;;4.70;;
1779;SDS011;10019;46.670;14.260;2022-09-01T02:09:06;6.30;;;5.00;;
1779;SDS011;10019;46.670;14.260;2022-09-01T02:11:39;5.87;;;5.27;;
1779;SDS011;10019;46.670;14.260;2022-09-01T02:14:11;6.57;;;5.97;;
1779;SDS011;10019;46.670;14.260;2022-09-01T02:16:45;6.33;;;5.60;;
1779;SDS011;10019;46.670;14.260;2022-09-01T02:19:16;6.43;;;5.80;;
1779;SDS011;10019;46.670;14.260;2022-09-01T02:21:50;8.50;;;6.17;;
1779;SDS011;10019;46.670;14.260;2022-09-01T02:24:25;7.00;;;5.80;;
1779;SDS011;10019;46.670;14.260;2022-09-01T02:27:02;7.77;;;6.80;;
1779;SDS011;10019;46.670;14.260;2022-09-01T02:29:35;6.63;;;6.03;;
1779;SDS011;10019;46.670;14.260;2022-09-01T02:32:07;7.93;;;7.13;;
1779;SDS011;10019;46.670;14.260;2022-09-01T02:34:40;7.10;;;6.40;;
1779;SDS011;10019;46.670;14.260;2022-09-01T02:37:12;6.57;;;5.97;;
1779;SDS011;10019;46.670;14.260;2022-09-01T02:39:44;7.40;;;6.53;;
1779;SDS011;10019;46.670;14.260;2022-09-01T02:42:18;6.63;;;6.00;;
1779;SDS011;10019;46.670;14.260;2022-09-01T02:44:54;7.00;;;6.30;;
1779;SDS011;10019;46.670;14.260;2022-09-01T02:47:27;7.57;;;6.87;;
1779;SDS011;10019;46.670;14.260;2022-09-01T02:49:59;8.23;;;7.40;;
1779;SDS011;10019;46.670;14.260;2022-09-01T02:52:32;7.80;;;6.63;;
1779;SDS011;10019;46.670;14.260;2022-09-01T02:55:07;8.00;;;6.77;;
1779;SDS011;10019;46.670;14.260;2022-09-01T02:57:42;7.30;;;6.60;;
1779;SDS011;10019;46.670;14.260;2022-09-01T03:00:15;7.73;;;6.93;;
1779;SDS011;10019;46.670;14.260;2022-09-01T03:02:51;7.10;;;6.50;;
1779;SDS011;10019;46.670;14.260;2022-09-01T03:05:24;8.60;;;7.70;;
1779;SDS011;10019;46.670;14.260;2022-09-01T03:07:58;8.30;;;7.20;;
1779;SDS011;10019;46.670;14.260;2022-09-01T03:10:32;8.17;;;7.37;;
1779;SDS011;10019;46.670;14.260;2022-09-01T03:13:08;7.20;;;6.60;;
1779;SDS011;10019;46.670;14.260;2022-09-01T03:15:42;7.93;;;7.13;;
1779;SDS011;10019;46.670;14.260;2022-09-01T03:18:14;6.73;;;6.13;;
1779;SDS011;10019;46.670;14.260;2022-09-01T03:20:47;8.50;;;6.80;;
1779;SDS011;10019;46.670;14.260;2022-09-01T03:23:22;7.37;;;6.67;;
1779;SDS011;10019;46.670;14.260;2022-09-01T03:25:54;8.00;;;7.20;;
1779;SDS011;10019;46.670;14.260;2022-09-01T03:28:27;6.60;;;6.00;;
1779;SDS011;10019;46.670;14.260;2022-09-01T03:31:00;6.50;;;5.90;;
1779;SDS011;10019;46.670;14.260;2022-09-01T03:33:31;6.50;;;5.90;;
1779;SDS011;10019;46.670;14.260;2022-09-01T03:36:04;6.73;;;5.97;;
1779;SDS011;10019;46.670;14.260;2022-09-01T03:38:37;5.97;;;5.47;;
1779;SDS011;10019;46.670;14.260;2022-09-01T03:41:08;6.33;;;5.70;;
1779;SDS011;10019;46.670;14.260;2022-09-01T03:43:43;7.67;;;5.90;;
1779;SDS011;10019;46.670;14.260;2022-09-01T03:46:16;5.27;;;4.77;;
1779;SDS011;10019;46.670;14.260;2022-09-01T03:48:51;4.53;;;4.13;;
1779;SDS011;10019;46.670;14.260;2022-09-01T03:51:27;5.00;;;4.57;;
1779;SDS011;10019;46.670;14.260;2022-09-01T03:54:00;5.13;;;4.63;;
1779;SDS011;10019;46.670;14.260;2022-09-01T03:56:32;5.60;;;5.10;;
1779;SDS011;10019;46.670;14.260;2022-09-01T03:59:05;9.50;;;4.57;;
1779;SDS011;10019;46.670;14.260;2022-09-01T04:01:37;5.10;;;4.50;;
1779;SDS011;10019;46.670;14.260;2022-09-01T04:04:10;5.63;;;5.03;;
1779;SDS011;10019;46.670;14.260;2022-09-01T04:06:44;7.53;;;4.50;;
1779;SDS011;10019;46.670;14.260;2022-09-01T04:09:16;4.43;;;4.03;;
1779;SDS011;10019;46.670;14.260;2022-09-01T04:11:48;5.00;;;4.50;;
1779;SDS011;10019;46.670;14.260;2022-09-01T04:14:22;5.20;;;4.70;;
1779;SDS011;10019;46.670;14.260;2022-09-01T04:16:54;4.40;;;4.00;;
1779;SDS011;10019;46.670;14.260;2022-09-01T04:19:43;5.00;;;4.53;;
1779;SDS011;10019;46.670;14.260;2022-09-01T04:22:16;4.03;;;3.73;;
1779;SDS011;10019;46.670;14.260;2022-09-01T04:24:49;5.10;;;4.70;;
1779;SDS011;10019;46.670;14.260;2022-09-01T04:27:21;4.40;;;4.00;;
1779;SDS011;10019;46.670;14.260;2022-09-01T04:29:57;4.63;;;4.17;;
1779;SDS011;10019;46.670;14.260;2022-09-01T04:32:30;4.33;;;3.93;;
1779;SDS011;10019;46.670;14.260;2022-09-01T04:35:04;4.90;;;4.40;;
1779;SDS011;10019;46.670;14.260;2022-09-01T04:37:37;4.97;;;4.57;;
1779;SDS011;10019;46.670;14.260;2022-09-01T04:40:09;4.40;;;4.00;;
1779;SDS011;10019;46.670;14.260;2022-09-01T04:42:43;6.20;;;4.00;;
1779;SDS011;10019;46.670;14.260;2022-09-01T04:45:16;5.60;;;4.40;;
1779;SDS011;10019;46.670;14.260;2022-09-01T04:47:51;5.37;;;4.37;;
1779;SDS011;10019;46.670;14.260;2022-09-01T04:50:23;4.23;;;3.80;;
1779;SDS011;10019;46.670;14.260;2022-09-01T04:52:56;5.10;;;4.60;;
1779;SDS011;10019;46.670;14.260;2022-09-01T04:55:30;4.90;;;4.10;;
1779;SDS011;10019;46.670;14.260;2022-09-01T04:58:01;5.93;;;5.03;;
1779;SDS011;10019;46.670;14.260;2022-09-01T05:00:35;4.60;;;4.20;;
1779;SDS011;10019;46.670;14.260;2022-09-01T05:03:07;4.00;;;3.70;;
1779;SDS011;10019;46.670;14.260;2022-09-01T05:05:40;4.00;;;3.70;;
1779;SDS011;10019;46.670;14.260;2022-09-01T05:08:13;4.73;;;4.30;;
1779;SDS011;10019;46.670;14.260;2022-09-01T05:10:48;4.93;;;4.43;;
1779;SDS011;10019;46.670;14.260;2022-09-01T05:13:21;4.37;;;3.97;;
1779;SDS011;10019;46.670;14.260;2022-09-01T05:16:00;4.80;;;4.13;;
1779;SDS011;10019;46.670;14.260;2022-09-01T05:18:33;5.30;;;4.30;;
1779;SDS011;10019;46.670;14.260;2022-09-01T05:21:06;7.40;;;3.83;;
1779;SDS011;10019;46.670;14.260;2022-09-01T05:23:40;4.07;;;3.70;;
1779;SDS011;10019;46.670;14.260;2022-09-01T05:26:12;5.60;;;4.57;;
1779;SDS011;10019;46.670;14.260;2022-09-01T05:28:46;5.00;;;3.83;;
1779;SDS011;10019;46.670;14.260;2022-09-01T05:31:21;4.70;;;3.87;;
1779;SDS011;10019;46.670;14.260;2022-09-01T05:33:53;4.50;;;4.10;;
1779;SDS011;10019;46.670;14.260;2022-09-01T05:36:27;5.20;;;4.70;;
1779;SDS011;10019;46.670;14.260;2022-09-01T05:39:00;8.10;;;4.53;;
1779;SDS011;10019;46.670;14.260;2022-09-01T05:41:32;5.10;;;4.00;;
1779;SDS011;10019;46.670;14.260;2022-09-01T05:44:05;4.40;;;3.90;;
1779;SDS011;10019;46.670;14.260;2022-09-01T05:46:38;3.90;;;3.60;;
1779;SDS011;10019;46.670;14.260;2022-09-01T05:49:11;4.33;;;3.93;;
1779;SDS011;10019;46.670;14.260;2022-09-01T05:51:47;4.63;;;4.23;;
1779;SDS011;10019;46.670;14.260;2022-09-01T05:54:21;4.87;;;4.40;;
1779;SDS011;10019;46.670;14.260;2022-09-01T05:56:56;4.60;;;4.20;;
1779;SDS011;10019;46.670;14.260;2022-09-01T05:59:28;5.17;;;4.67;;
1779;SDS011;10019;46.670;14.260;2022-09-01T06:02:03;4.43;;;4.03;;
1779;SDS011;10019;46.670;14.260;2022-09-01T06:04:38;4.60;;;4.20;;
1779;SDS011;10019;46.670;14.260;2022-09-01T06:07:14;5.27;;;4.60;;
1779;SDS011;10019;46.670;14.260;2022-09-01T06:09:47;5.80;;;4.93;;
1779;SDS011;10019;46.670;14.260;2022-09-01T06:12:19;7.53;;;4.80;;
1779;SDS011;10019;46.670;14.260;2022-09-01T06:14:54;5.80;;;4.77;;
1779;SDS011;10019;46.670;14.260;2022-09-01T06:17:28;5.43;;;4.80;;
1779;SDS011;10019;46.670;14.260;2022-09-01T06:20:00;4.87;;;4.40;;
1779;SDS011;10019;46.670;14.260;2022-09-01T06:22:39;5.93;;;4.60;;
1779;SDS011;10019;46.670;14.260;2022-09-01T06:25:11;4.97;;;4.50;;
1779;SDS011;10019;46.670;14.260;2022-09-01T06:27:43;5.17;;;4.77;;
1779;SDS011;10019;46.670;14.260;2022-09-01T06:30:16;5.40;;;4.90;;
1779;SDS011;10019;46.670;14.260;2022-09-01T06:32:51;4.80;;;4.30;;
1779;SDS011;10019;46.670;14.260;2022-09-01T06:35:23;5.50;;;5.00;;
1779;SDS011;10019;46.670;14.260;2022-09-01T06:37:58;5.00;;;4.60;;
1779;SDS011;10019;46.670;14.260;2022-09-01T06:40:31;5.10;;;4.70;;
1779;SDS011;10019;46.670;14.260;2022-09-01T06:43:03;5.90;;;4.90;;
1779;SDS011;10019;46.670;14.260;2022-09-01T06:45:38;5.20;;;4.70;;
1779;SDS011;10019;46.670;14.260;2022-09-01T06:48:12;5.43;;;4.93;;
1779;SDS011;10019;46.670;14.260;2022-09-01T06:50:45;5.70;;;5.20;;
1779;SDS011;10019;46.670;14.260;2022-09-01T06:53:16;5.47;;;4.97;;
1779;SDS011;10019;46.670;14.260;2022-09-01T06:55:50;5.80;;;5.30;;
1779;SDS011;10019;46.670;14.260;2022-09-01T06:58:22;5.97;;;5.40;;
1779;SDS011;10019;46.670;14.260;2022-09-01T07:00:54;5.90;;;4.87;;
1779;SDS011;10019;46.670;14.260;2022-09-01T07:03:27;8.03;;;5.73;;
1779;SDS011;10019;46.670;14.260;2022-09-01T07:05:58;5.73;;;5.30;;
1779;SDS011;10019;46.670;14.260;2022-09-01T07:08:30;6.97;;;5.97;;
1779;SDS011;10019;46.670;14.260;2022-09-01T07:11:15;6.73;;;5.80;;
1779;SDS011;10019;46.670;14.260;2022-09-01T07:13:57;5.47;;;4.80;;
1779;SDS011;10019;46.670;14.260;2022-09-01T07:16:31;6.70;;;5.47;;
1779;SDS011;10019;46.670;14.260;2022-09-01T07:19:11;6.80;;;6.20;;
1779;SDS011;10019;46.670;14.260;2022-09-01T07:21:44;5.97;;;5.40;;
1779;SDS011;10019;46.670;14.260;2022-09-01T07:24:15;6.87;;;6.03;;
1779;SDS011;10019;46.670;14.260;2022-09-01T07:26:48;6.30;;;5.70;;
1779;SDS011;10019;46.670;14.260;2022-09-01T07:29:21;6.60;;;5.60;;
1779;SDS011;10019;46.670;14.260;2022-09-01T07:31:55;6.23;;;5.63;;
1779;SDS011;10019;46.670;14.260;2022-09-01T07:34:28;7.07;;;6.37;;
1779;SDS011;10019;46.670;14.260;2022-09-01T07:37:00;6.60;;;5.93;;
1779;SDS011;10019;46.670;14.260;2022-09-01T07:39:32;6.60;;;6.00;;
1779;SDS011;10019;46.670;14.260;2022-09-01T07:42:04;6.40;;;5.80;;
1779;SDS011;10019;46.670;14.260;2022-09-01T07:44:40;6.67;;;6.07;;
1779;SDS011;10019;46.670;14.260;2022-09-01T07:47:11;6.63;;;6.03;;
1779;SDS011;10019;46.670;14.260;2022-09-01T07:49:45;6.50;;;5.90;;
1779;SDS011;10019;46.670;14.260;2022-09-01T07:52:17;5.93;;;5.40;;
1779;SDS011;10019;46.670;14.260;2022-09-01T07:54:49;6.70;;;6.07;;
1779;SDS011;10019;46.670;14.260;2022-09-01T07:57:21;6.30;;;5.80;;
1779;SDS011;10019;46.670;14.260;2022-09-01T07:59:53;6.70;;;6.10;;
1779;SDS011;10019;46.670;14.260;2022-09-01T08:02:26;7.53;;;6.83;;
1779;SDS011;10019;46.670;14.260;2022-09-01T08:04:59;6.47;;;5.87;;
1779;SDS011;10019;46.670;14.260;2022-09-01T08:07:31;6.90;;;6.30;;
1779;SDS011;10019;46.670;14.260;2022-09-01T08:10:04;6.80;;;5.90;;
1779;SDS011;10019;46.670;14.260;2022-09-01T08:12:36;7.23;;;6.53;;
1779;SDS011;10019;46.670;14.260;2022-09-01T08:15:08;6.20;;;5.60;;
1779;SDS011;10019;46.670;14.260;2022-09-01T08:17:41;6.83;;;6.13;;
1779;SDS011;10019;46.670;14.260;2022-09-01T08:20:14;6.40;;;5.80;;
1779;SDS011;10019;46.670;14.260;2022-09-01T08:22:46;6.77;;;6.10;;
1779;SDS011;10019;46.670;14.260;2022-09-01T08:25:18;7.60;;;6.60;;
1779;SDS011;10019;46.670;14.260;2022-09-01T08:27:50;6.53;;;5.93;;
1779;SDS011;10019;46.670;14.260;2022-09-01T08:30:22;10.00;;;6.40;;
1779;SDS011;10019;46.670;14.260;2022-09-01T08:32:54;6.47;;;5.73;;
1779;SDS011;10019;46.670;14.260;2022-09-01T08:35:28;6.90;;;5.77;;
1779;SDS011;10019;46.670;14.260;2022-09-01T08:38:00;7.10;;;6.27;;
1779;SDS011;10019;46.670;14.260;2022-09-01T08:40:31;7.90;;;6.50;;
1779;SDS011;10019;46.670;14.260;2022-09-01T08:43:06;6.33;;;5.73;;
1779;SDS011;10019;46.670;14.260;2022-09-01T08:45:46;8.80;;;5.97;;
1779;SDS011;10019;46.670;14.260;2022-09-01T08:48:23;6.43;;;5.30;;
1779;SDS011;10019;46.670;14.260;2022-09-01T08:51:02;4.77;;;4.40;;
1779;SDS011;10019;46.670;14.260;2022-09-01T08:53:39;5.67;;;5.17;;
1779;SDS011;10019;46.670;14.260;2022-09-01T08:56:14;5.60;;;5.10;;
1779;SDS011;10019;46.670;14.260;2022-09-01T08:58:48;6.40;;;5.90;;
1779;SDS011;10019;46.670;14.260;2022-09-01T09:01:21;5.77;;;5.20;;
1779;SDS011;10019;46.670;14.260;2022-09-01T09:04:03;6.50;;;5.50;;
1779;SDS011;10019;46.670;14.260;2022-09-01T09:06:50;5.83;;;5.30;;
1779;SDS011;10019;46.670;14.260;2022-09-01T09:09:26;5.50;;;5.00;;
1779;SDS011;10019;46.670;14.260;2022-09-01T09:12:07;5.00;;;4.50;;
1779;SDS011;10019;46.670;14.260;2022-09-01T09:14:51;5.13;;;4.63;;
1779;SDS011;10019;46.670;14.260;2022-09-01T09:17:34;4.57;;;4.20;;
1779;SDS011;10019;46.670;14.260;2022-09-01T09:20:07;5.07;;;4.53;;
1779;SDS011;10019;46.670;14.260;2022-09-01T09:22:41;4.70;;;4.30;;
1779;SDS011;10019;46.670;14.260;2022-09-01T09:25:14;4.90;;;4.27;;
1779;SDS011;10019;46.670;14.260;2022-09-01T09:27:47;5.97;;;4.70;;
1779;SDS011;10019;46.670;14.260;2022-09-01T09:30:20;5.20;;;4.80;;
1779;SDS011;10019;46.670;14.260;2022-09-01T09:32:56;5.50;;;5.00;;
1779;SDS011;10019;46.670;14.260;2022-09-01T09:35:34;4.90;;;4.50;;
1779;SDS011;10019;46.670;14.260;2022-09-01T09:38:16;4.60;;;4.20;;
1779;SDS011;10019;46.670;14.260;2022-09-01T09:40:55;4.73;;;4.33;;
1779;SDS011;10019;46.670;14.260;2022-09-01T09:43:29;4.30;;;3.90;;
1779;SDS011;10019;46.670;14.260;2022-09-01T09:46:23;5.70;;;5.20;;
1779;SDS011;10019;46.670;14.260;2022-09-01T09:49:07;5.13;;;4.67;;
1779;SDS011;10019;46.670;14.260;2022-09-01T09:51:42;5.10;;;4.57;;
1779;SDS011;10019;46.670;14.260;2022-09-01T09:54:20;4.80;;;4.40;;
1779;SDS011;10019;46.670;14.260;2022-09-01T09:57:05;5.00;;;4.60;;
1779;SDS011;10019;46.670;14.260;2022-09-01T09:59:43;5.93;;;4.53;;
1779;SDS011;10019;46.670;14.260;2022-09-01T10:02:24;4.77;;;4.33;;
1779;SDS011;10019;46.670;14.260;2022-09-01T10:05:19;5.00;;;4.60;;
1779;SDS011;10019;46.670;14.260;2022-09-01T10:07:55;6.17;;;4.67;;
1779;SDS011;10019;46.670;14.260;2022-09-01T10:10:30;4.77;;;4.37;;
1779;SDS011;10019;46.670;14.260;2022-09-01T10:13:08;4.83;;;4.43;;
1779;SDS011;10019;46.670;14.260;2022-09-01T10:15:42;4.77;;;4.40;;
1779;SDS011;10019;46.670;14.260;2022-09-01T10:18:19;5.10;;;4.70;;
1779;SDS011;10019;46.670;14.260;2022-09-01T10:20:55;4.97;;;4.57;;
1779;SDS011;10019;46.670;14.260;2022-09-01T10:23:29;4.80;;;4.40;;
1779;SDS011;10019;46.670;14.260;2022-09-01T10:26:06;4.90;;;4.50;;
1779;SDS011;10019;46.670;14.260;2022-09-01T10:28:43;5.10;;;4.70;;
1779;SDS011;10019;46.670;14.260;2022-09-01T10:31:18;4.93;;;4.50;;
1779;SDS011;10019;46.670;14.260;2022-09-01T10:33:50;4.60;;;4.20;;
1779;SDS011;10019;46.670;14.260;2022-09-01T10:36:22;5.03;;;4.63;;
1779;SDS011;10019;46.670;14.260;2022-09-01T10:38:54;4.37;;;4.03;;
1779;SDS011;10019;46.670;14.260;2022-09-01T10:41:49;4.50;;;4.10;;
1779;SDS011;10019;46.670;14.260;2022-09-01T10:44:26;5.80;;;5.10;;
1779;SDS011;10019;46.670;14.260;2022-09-01T10:47:03;4.93;;;4.53;;
1779;SDS011;10019;46.670;14.260;2022-09-01T10:55:28;4.60;;;4.20;;
1779;SDS011;10019;46.670;14.260;2022-09-01T10:58:28;5.13;;;4.73;;
1779;SDS011;10019;46.670;14.260;2022-09-01T11:01:04;5.40;;;4.90;;
1779;SDS011;10019;46.670;14.260;2022-09-01T11:06:43;5.63;;;5.07;;
1779;SDS011;10019;46.670;14.260;2022-09-01T11:09:24;5.20;;;4.70;;
1779;SDS011;10019;46.670;14.260;2022-09-01T11:18:07;5.63;;;5.03;;
1779;SDS011;10019;46.670;14.260;2022-09-01T11:20:40;5.90;;;5.40;;
1779;SDS011;10019;46.670;14.260;2022-09-01T11:23:20;5.03;;;4.60;;
1779;SDS011;10019;46.670;14.260;2022-09-01T11:25:54;5.00;;;4.57;;
1779;SDS011;10019;46.670;14.260;2022-09-01T11:31:25;16.10;;;5.13;;
1779;SDS011;10019;46.670;14.260;2022-09-01T11:34:03;5.10;;;4.70;;
1779;SDS011;10019;46.670;14.260;2022-09-01T11:36:51;5.77;;;3.83;;
1779;SDS011;10019;46.670;14.260;2022-09-01T11:39:32;5.23;;;4.83;;
1779;SDS011;10019;46.670;14.260;2022-09-01T11:42:06;5.67;;;4.57;;
1779;SDS011;10019;46.670;14.260;2022-09-01T11:44:44;5.60;;;5.10;;
1779;SDS011;10019;46.670;14.260;2022-09-01T11:47:21;4.90;;;4.50;;
1779;SDS011;10019;46.670;14.260;2022-09-01T11:49:56;5.43;;;4.70;;
1779;SDS011;10019;46.670;14.260;2022-09-01T11:52:30;5.43;;;4.30;;
1779;SDS011;10019;46.670;14.260;2022-09-01T11:55:05;5.10;;;4.70;;
1779;SDS011;10019;46.670;14.260;2022-09-01T11:57:37;5.73;;;5.20;;
1779;SDS011;10019;46.670;14.260;2022-09-01T12:00:11;5.23;;;4.83;;
1779;SDS011;10019;46.670;14.260;2022-09-01T12:02:47;5.23;;;4.77;;
1779;SDS011;10019;46.670;14.260;2022-09-01T12:05:25;4.77;;;4.37;;
1779;SDS011;10019;46.670;14.260;2022-09-01T12:08:00;7.40;;;4.40;;
1779;SDS011;10019;46.670;14.260;2022-09-01T12:10:34;4.83;;;4.43;;
1779;SDS011;10019;46.670;14.260;2022-09-01T12:13:08;4.93;;;4.53;;
1779;SDS011;10019;46.670;14.260;2022-09-01T12:15:41;4.73;;;4.33;;
1779;SDS011;10019;46.670;14.260;2022-09-01T12:18:18;5.40;;;4.90;;
1779;SDS011;10019;46.670;14.260;2022-09-01T12:20:52;5.97;;;5.37;;
1779;SDS011;10019;46.670;14.260;2022-09-01T12:23:25;5.10;;;4.70;;
1779;SDS011;10019;46.670;14.260;2022-09-01T12:26:07;6.10;;;4.20;;
1779;SDS011;10019;46.670;14.260;2022-09-01T12:28:40;5.10;;;4.70;;
1779;SDS011;10019;46.670;14.260;2022-09-01T12:31:12;5.33;;;4.93;;
1779;SDS011;10019;46.670;14.260;2022-09-01T12:33:47;5.40;;;4.90;;
1779;SDS011;10019;46.670;14.260;2022-09-01T12:36:20;5.67;;;5.17;;
1779;SDS011;10019;46.670;14.260;2022-09-01T12:38:54;5.33;;;4.90;;
1779;SDS011;10019;46.670;14.260;2022-09-01T12:41:31;5.50;;;5.03;;
1779;SDS011;10019;46.670;14.260;2022-09-01T12:47:00;5.40;;;5.00;;
1779;SDS011;10019;46.670;14.260;2022-09-01T12:49:35;5.50;;;4.87;;
1779;SDS011;10019;46.670;14.260;2022-09-01T12:52:14;5.20;;;4.70;;
1779;SDS011;10019;46.670;14.260;2022-09-01T12:55:07;5.10;;;4.70;;
1779;SDS011;10019;46.670;14.260;2022-09-01T12:57:45;5.60;;;5.03;;
1779;SDS011;10019;46.670;14.260;2022-09-01T13:00:21;5.63;;;5.13;;
1779;SDS011;10019;46.670;14.260;2022-09-01T13:03:04;7.23;;;5.07;;
1779;SDS011;10019;46.670;14.260;2022-09-01T13:05:39;5.83;;;5.33;;
1779;SDS011;10019;46.670;14.260;2022-09-01T13:08:12;6.33;;;4.77;;
1779;SDS011;10019;46.670;14.260;2022-09-01T13:10:47;6.00;;;5.50;;
1779;SDS011;10019;46.670;14.260;2022-09-01T13:13:20;5.83;;;5.33;;
1779;SDS011;10019;46.670;14.260;2022-09-01T13:15:54;6.00;;;5.50;;
1779;SDS011;10019;46.670;14.260;2022-09-01T13:18:28;5.93;;;5.43;;
1779;SDS011;10019;46.670;14.260;2022-09-01T13:21:02;5.87;;;5.37;;
1779;SDS011;10019;46.670;14.260;2022-09-01T13:23:34;5.57;;;5.07;;
1779;SDS011;10019;46.670;14.260;2022-09-01T13:26:06;5.73;;;5.23;;
1779;SDS011;10019;46.670;14.260;2022-09-01T13:28:39;5.60;;;5.13;;
1779;SDS011;10019;46.670;14.260;2022-09-01T13:31:10;6.23;;;5.73;;
1779;SDS011;10019;46.670;14.260;2022-09-01T13:33:42;5.77;;;5.30;;
1779;SDS011;10019;46.670;14.260;2022-09-01T13:36:15;6.60;;;6.10;;
1779;SDS011;10019;46.670;14.260;2022-09-01T13:38:48;6.13;;;5.53;;
1779;SDS011;10019;46.670;14.260;2022-09-01T13:41:20;5.93;;;5.33;;
1779;SDS011;10019;46.670;14.260;2022-09-01T13:43:51;9.23;;;5.40;;
1779;SDS011;10019;46.670;14.260;2022-09-01T13:46:23;6.23;;;5.57;;
1779;SDS011;10019;46.670;14.260;2022-09-01T13:48:55;5.70;;;5.20;;
1779;SDS011;10019;46.670;14.260;2022-09-01T13:51:28;6.30;;;5.70;;
1779;SDS011;10019;46.670;14.260;2022-09-01T13:54:00;6.00;;;5.40;;
1779;SDS011;10019;46.670;14.260;2022-09-01T13:56:31;6.73;;;6.23;;
1779;SDS011;10019;46.670;14.260;2022-09-01T13:59:04;6.47;;;5.87;;
1779;SDS011;10019;46.670;14.260;2022-09-01T14:01:36;6.33;;;5.73;;
1779;SDS011;10019;46.670;14.260;2022-09-01T14:04:10;5.57;;;5.17;;
1779;SDS011;10019;46.670;14.260;2022-09-01T14:06:43;6.13;;;5.57;;
1779;SDS011;10019;46.670;14.260;2022-09-01T14:09:15;7.70;;;4.97;;
1779;SDS011;10019;46.670;14.260;2022-09-01T14:11:47;7.30;;;5.10;;
1779;SDS011;10019;46.670;14.260;2022-09-01T14:14:19;6.23;;;5.63;;
1779;SDS011;10019;46.670;14.260;2022-09-01T14:16:50;14.77;;;5.30;;
1779;SDS011;10019;46.670;14.260;2022-09-01T14:19:23;5.63;;;5.03;;
1779;SDS011;10019;46.670;14.260;2022-09-01T14:21:56;5.33;;;4.93;;
1779;SDS011;10019;46.670;14.260;2022-09-01T14:24:27;6.77;;;5.60;;
1779;SDS011;10019;46.670;14.260;2022-09-01T14:26:59;5.93;;;5.33;;
1779;SDS011;10019;46.670;14.260;2022-09-01T14:29:31;6.23;;;5.67;;
1779;SDS011;10019;46.670;14.260;2022-09-01T14:32:03;5.70;;;5.20;;
1779;SDS011;10019;46.670;14.260;2022-09-01T14:34:36;5.63;;;5.13;;
1779;SDS011;10019;46.670;14.260;2022-09-01T14:37:09;5.00;;;4.50;;
1779;SDS011;10019;46.670;14.260;2022-09-01T14:39:41;5.43;;;4.93;;
1779;SDS011;10019;46.670;14.260;2022-09-01T14:42:13;5.10;;;4.70;;
1779;SDS011;10019;46.670;14.260;2022-09-01T14:44:45;4.93;;;4.53;;
1779;SDS011;10019;46.670;14.260;2022-09-01T14:47:16;5.40;;;4.80;;
1779;SDS011;10019;46.670;14.260;2022-09-01T14:49:48;4.90;;;4.43;;
1779;SDS011;10019;46.670;14.260;2022-09-01T14:52:21;5.20;;;4.70;;
1779;SDS011;10019;46.670;14.260;2022-09-01T14:54:53;5.97;;;5.47;;
1779;SDS011;10019;46.670;14.260;2022-09-01T14:57:25;5.60;;;5.07;;
1779;SDS011;10019;46.670;14.260;2022-09-01T14:59:56;4.63;;;4.23;;
1779;SDS011;10019;46.670;14.260;2022-09-01T15:02:28;4.80;;;4.40;;
1779;SDS011;10019;46.670;14.260;2022-09-01T15:05:01;5.80;;;5.30;;
1779;SDS011;10019;46.670;14.260;2022-09-01T15:07:34;6.50;;;5.90;;
1779;SDS011;10019;46.670;14.260;2022-09-01T15:10:06;7.00;;;6.30;;
1779;SDS011;10019;46.670;14.260;2022-09-01T15:12:40;5.87;;;5.20;;
1779;SDS011;10019;46.670;14.260;2022-09-01T15:15:12;6.07;;;5.57;;
1779;SDS011;10019;46.670;14.260;2022-09-01T15:17:44;8.13;;;7.33;;
1779;SDS011;10019;46.670;14.260;2022-09-01T15:20:16;9.20;;;6.70;;
1779;SDS011;10019;46.670;14.260;2022-09-01T15:23:07;8.10;;;6.37;;
1779;SDS011;10019;46.670;14.260;2022-09-01T15:25:39;6.00;;;5.40;;
1779;SDS011;10019;46.670;14.260;2022-09-01T15:28:10;6.27;;;5.67;;
1779;SDS011;10019;46.670;14.260;2022-09-01T15:30:43;6.30;;;5.70;;
1779;SDS011;10019;46.670;14.260;2022-09-01T15:33:14;5.03;;;4.50;;
1779;SDS011;10019;46.670;14.260;2022-09-01T15:35:46;5.87;;;5.40;;
1779;SDS011;10019;46.670;14.260;2022-09-01T15:38:19;5.60;;;5.10;;
1779;SDS011;10019;46.670;14.260;2022-09-01T15:40:51;5.87;;;5.27;;
1779;SDS011;10019;46.670;14.260;2022-09-01T15:43:25;5.50;;;5.00;;
1779;SDS011;10019;46.670;14.260;2022-09-01T15:45:57;9.17;;;6.03;;
1779;SDS011;10019;46.670;14.260;2022-09-01T15:48:31;5.13;;;4.73;;
1779;SDS011;10019;46.670;14.260;2022-09-01T15:51:06;5.60;;;5.10;;